Weather History for Columbus, NE

Change the Weather History Date:

Sunday, March 2, 2014

  Actual Average Record
Temperature  
Mean Temperature -3 °F -  
Max Temperature 1 °F 44 °F 74 °F (1974)
Min Temperature -7 °F 23 °F -7 °F (2014)
Degree Days  
Heating Degree Days 68    
Moisture  
Dew Point -15 °F    
Average Humidity 57    
Maximum Humidity 66    
Minimum Humidity 47    
Precipitation  
Precipitation 0.00 in - - ()
Sea Level Pressure  
Sea Level Pressure 30.53 in    
Wind  
Wind Speed 12 mph (North)    
Max Wind Speed 17 mph    
Max Gust Speed 23 mph    
Visibility 10 miles    
Events      
Averages and records for this station are not official NWS values.
T = Trace of Precipitation, MM = Missing Value Source: NWS Daily Summary

Daily Weather History Graph

Daily Weather History Graph

Search for Another Location

Airport:

Trip Planner

Search our weather history database for the weather conditions in past years. The results will help you decide how hot, cold, wet, or windy it might be!

Date:

Astronomy

Mar. 02, 2014 Rise Set
Actual Time 7:02 AM CST 6:21 PM CST
Civil Twilight 6:34 AM CST 6:49 PM CST
Nautical Twilight 6:02 AM CST 7:21 PM CST
Astronomical Twilight 5:30 AM CST 7:53 PM CST
Moon 7:32 AM CST (3/2) 8:20 PM CST (3/2)
Length of Visible Light 12h 14m
Length of Day
11h 18m
Waxing Crescent, 3% of the Moon is Illuminated
Mar 2
Waxing Crescent
Mar 8
First Quarter
Mar 16
Full
Mar 23
Last Quarter
Mar 30
New

Hourly Weather History & Observations

Time (CST) Temp. Windchill Dew Point Humidity Pressure Visibility Wind Dir Wind Speed Gust Speed Precip Events Conditions
12:15 AM -2.2 °F -19.9 °F -13.0 °F 60% 30.49 in 10.0 mi North 11.5 mph - N/A   Overcast
12:35 AM -2.2 °F -22.9 °F -11.2 °F 66% 30.50 in 10.0 mi North 16.1 mph - N/A   Overcast
12:55 AM -2.2 °F -20.7 °F -11.2 °F 66% 30.49 in 10.0 mi North 12.7 mph - N/A   Overcast
1:15 AM -2.2 °F -20.7 °F -11.2 °F 66% 30.49 in 10.0 mi North 12.7 mph - N/A   Overcast
1:35 AM -2.2 °F -21.5 °F -11.2 °F 66% 30.50 in 10.0 mi North 13.8 mph - N/A   Overcast
1:55 AM -2.2 °F -20.7 °F -11.2 °F 66% 30.51 in 10.0 mi North 12.7 mph - N/A   Overcast
2:15 AM -2.2 °F -21.5 °F -13.0 °F 60% 30.51 in 10.0 mi North 13.8 mph - N/A   Overcast
2:35 AM -2.2 °F -21.5 °F -13.0 °F 60% 30.51 in 10.0 mi North 13.8 mph - N/A   Overcast
2:55 AM -4.0 °F -25.2 °F -14.8 °F 60% 30.50 in 10.0 mi North 16.1 mph - N/A   Overcast
3:15 AM -4.0 °F -23.0 °F -14.8 °F 60% 30.50 in 9.0 mi North 12.7 mph - N/A   Mostly Cloudy
3:35 AM -5.8 °F -25.2 °F -14.8 °F 65% 30.50 in 8.0 mi North 12.7 mph 18.4 mph N/A   Partly Cloudy
3:55 AM -5.8 °F -26.8 °F -14.8 °F 65% 30.52 in 3.0 mi North 15.0 mph - N/A   Mostly Cloudy
4:15 AM -5.8 °F -26.0 °F -14.8 °F 65% 30.52 in 10.0 mi North 13.8 mph - N/A   Overcast
4:35 AM -5.8 °F -27.5 °F -16.6 °F 60% 30.52 in 10.0 mi North 16.1 mph 23.0 mph N/A   Overcast
4:55 AM -5.8 °F -27.5 °F -16.6 °F 60% 30.53 in 10.0 mi NNW 16.1 mph - N/A   Overcast
5:15 AM -5.8 °F -27.5 °F -16.6 °F 60% 30.54 in 10.0 mi North 16.1 mph - N/A   Overcast
5:35 AM -5.8 °F -26.8 °F -16.6 °F 60% 30.54 in 10.0 mi North 15.0 mph - N/A   Overcast
5:55 AM -5.8 °F -26.8 °F -18.4 °F 55% 30.53 in 10.0 mi North 15.0 mph - N/A   Overcast
6:15 AM -5.8 °F -28.2 °F -18.4 °F 55% 30.54 in 10.0 mi North 17.3 mph - N/A   Overcast
6:35 AM -7.6 °F -29.8 °F -18.4 °F 59% 30.54 in 10.0 mi North 16.1 mph 20.7 mph N/A   Overcast
6:55 AM -7.6 °F -28.3 °F -20.2 °F 54% 30.54 in 10.0 mi North 13.8 mph - N/A   Overcast
7:15 AM -7.6 °F -29.1 °F -20.2 °F 54% 30.53 in 10.0 mi North 15.0 mph - N/A   Overcast
7:35 AM -7.6 °F -29.8 °F -20.2 °F 54% 30.54 in 10.0 mi North 16.1 mph - N/A   Overcast
7:55 AM -7.6 °F -29.1 °F -20.2 °F 54% 30.54 in 10.0 mi North 15.0 mph - N/A   Overcast
8:15 AM -7.6 °F -27.5 °F -18.4 °F 59% 30.55 in 10.0 mi North 12.7 mph - N/A   Mostly Cloudy
8:35 AM -7.6 °F -27.5 °F -20.2 °F 54% 30.57 in 10.0 mi North 12.7 mph - N/A   Partly Cloudy
8:55 AM -5.8 °F -26.0 °F -16.6 °F 60% 30.58 in 10.0 mi North 13.8 mph - N/A   Mostly Cloudy
9:15 AM -5.8 °F -24.4 °F -18.4 °F 55% 30.59 in 10.0 mi North 11.5 mph - N/A   Mostly Cloudy
9:35 AM -4.0 °F -23.0 °F -16.6 °F 55% 30.59 in 10.0 mi North 12.7 mph - N/A   Partly Cloudy
9:55 AM -5.8 °F -24.4 °F -18.4 °F 55% 30.58 in 10.0 mi North 11.5 mph - N/A   Clear
10:15 AM -4.0 °F -24.5 °F -18.4 °F 50% 30.57 in 10.0 mi North 15.0 mph - N/A   Clear
10:35 AM -4.0 °F -24.5 °F -16.6 °F 55% 30.57 in 10.0 mi North 15.0 mph - N/A   Clear
10:55 AM -2.2 °F -18.9 °F -14.8 °F 55% 30.58 in 10.0 mi North 10.4 mph - N/A   Clear
11:15 AM -2.2 °F -20.7 °F -14.8 °F 55% 30.58 in 10.0 mi North 12.7 mph 17.3 mph N/A   Clear
11:35 AM -2.2 °F -20.7 °F -14.8 °F 55% 30.58 in 10.0 mi North 12.7 mph 18.4 mph N/A   Clear
11:55 AM -0.4 °F -19.2 °F -13.0 °F 55% 30.56 in 10.0 mi North 13.8 mph 17.3 mph N/A   Clear
12:15 PM -0.4 °F -16.7 °F -13.0 °F 55% 30.55 in 10.0 mi North 10.4 mph - N/A   Clear
12:35 PM -0.4 °F -17.6 °F -11.2 °F 60% 30.57 in 10.0 mi North 11.5 mph - N/A   Clear
12:55 PM 1.4 °F -15.3 °F -14.8 °F 47% 30.58 in 10.0 mi NNW 11.5 mph - N/A   Clear
1:15 PM 1.4 °F -16.1 °F -11.2 °F 56% 30.56 in 10.0 mi North 12.7 mph 16.1 mph N/A   Clear
1:35 PM 1.4 °F -15.3 °F -11.2 °F 56% 30.55 in 10.0 mi NNW 11.5 mph 17.3 mph N/A   Clear
1:55 PM 1.4 °F -16.1 °F -11.2 °F 56% 30.54 in 10.0 mi North 12.7 mph 20.7 mph N/A   Clear
2:15 PM 1.4 °F -18.2 °F -11.2 °F 56% 30.53 in 10.0 mi North 16.1 mph 19.6 mph N/A   Clear
2:35 PM 1.4 °F -15.3 °F - N/A% 30.52 in 10.0 mi NNW 11.5 mph - N/A   Clear
2:55 PM 1.4 °F -16.1 °F -11.2 °F 56% 30.52 in 10.0 mi North 12.7 mph - N/A   Clear
3:15 PM 1.4 °F -17.6 °F -11.2 °F 56% 30.52 in 10.0 mi NNW 15.0 mph - N/A   Clear
3:35 PM 1.4 °F -15.3 °F -11.2 °F 56% 30.52 in 10.0 mi North 11.5 mph 17.3 mph N/A   Clear
3:55 PM 1.4 °F -15.3 °F -11.2 °F 56% 30.53 in 10.0 mi North 11.5 mph - N/A   Clear
4:15 PM 1.4 °F -14.5 °F -13.0 °F 51% 30.51 in 10.0 mi North 10.4 mph 17.3 mph N/A   Clear
4:35 PM 1.4 °F -14.5 °F -13.0 °F 51% 30.50 in 10.0 mi North 10.4 mph - N/A   Clear
4:55 PM 1.4 °F -17.6 °F -13.0 °F 51% 30.50 in 10.0 mi North 15.0 mph - N/A   Clear
5:15 PM 1.4 °F -15.3 °F -11.2 °F 56% 30.50 in 10.0 mi North 11.5 mph 16.1 mph N/A   Clear
5:35 PM 1.4 °F -16.1 °F -13.0 °F 51% 30.49 in 10.0 mi North 12.7 mph - N/A   Clear
5:55 PM -0.4 °F -15.7 °F -13.0 °F 55% 30.50 in 10.0 mi North 9.2 mph - N/A   Clear
6:15 PM -0.4 °F -18.4 °F -14.8 °F 51% 30.49 in 10.0 mi North 12.7 mph - N/A   Clear
6:35 PM -0.4 °F -17.6 °F -14.8 °F 51% 30.49 in 10.0 mi North 11.5 mph - N/A   Clear
6:55 PM -0.4 °F -16.7 °F -14.8 °F 51% 30.50 in 10.0 mi North 10.4 mph - N/A   Clear
7:15 PM -0.4 °F -13.4 °F -14.8 °F 51% 30.50 in 10.0 mi North 6.9 mph - N/A   Clear
7:35 PM -0.4 °F -10.4 °F -13.0 °F 55% 30.51 in 10.0 mi North 4.6 mph - N/A   Clear
7:55 PM -0.4 °F -10.4 °F -14.8 °F 51% 30.52 in 10.0 mi North 4.6 mph - N/A   Clear
8:15 PM -2.2 °F -10.4 °F -14.8 °F 55% 30.52 in 10.0 mi North 3.5 mph - N/A   Clear
8:35 PM -2.2 °F -10.4 °F -14.8 °F 55% 30.51 in 10.0 mi North 3.5 mph - N/A   Clear
8:55 PM -2.2 °F -10.4 °F -14.8 °F 55% 30.52 in 10.0 mi NNE 3.5 mph - N/A   Clear
9:15 PM -4.0 °F -14.6 °F -14.8 °F 60% 30.52 in 10.0 mi NNE 4.6 mph - N/A   Clear
9:35 PM -4.0 °F -12.4 °F -14.8 °F 60% 30.53 in 10.0 mi NNW 3.5 mph - N/A   Clear
9:55 PM -4.0 °F - -14.8 °F 60% 30.54 in 10.0 mi Calm Calm - N/A   Clear
10:15 PM -4.0 °F - -16.6 °F 55% 30.55 in 10.0 mi Calm Calm - N/A   Clear
10:35 PM -2.2 °F - -13.0 °F 60% 30.55 in 10.0 mi Calm Calm - N/A   Clear
10:55 PM -2.2 °F - -14.8 °F 55% 30.56 in 10.0 mi Calm Calm - N/A   Clear
11:15 PM -5.8 °F - -16.6 °F 60% 30.56 in 10.0 mi Calm Calm - N/A   Clear
11:35 PM -5.8 °F -14.5 °F -14.8 °F 65% 30.55 in 10.0 mi West 3.5 mph - N/A   Clear
11:55 PM -4.0 °F -12.4 °F -13.0 °F 65% 30.53 in 10.0 mi WSW 3.5 mph - N/A   Clear